<?xml version="1.0" encoding="UTF-8" standalone="no" ?>
<gpx xmlns="http://www.topografix.com/GPX/1/1" xmlns:xsi="http://www.w3.org/2001/XMLSchema-instance" xsi:schemaLocation="http://www.topografix.com/GPX/1/1 http://www.topografix.com/GPX/1/1/gpx.xsd" version="1.1" creator="VisuGPX - https://www.visugpx.com">
  <metadata>
    <name>moncrabeau castelnau d'auzan</name>
  </metadata>
  <trk>
    <name><![CDATA[14588945-!!!!!!!!!!!!!!!!]]></name>
    <trkseg>
      <trkpt lat="44.0358" lon="0.36999">
        <ele>84</ele>
        <time>2022-04-17T13:17:54Z</time>
      </trkpt>
      <trkpt lat="44.03568" lon="0.36985">
        <ele>82</ele>
        <time>2022-04-17T13:18:15Z</time>
      </trkpt>
      <trkpt lat="44.03519" lon="0.36946">
        <ele>77</ele>
        <time>2022-04-17T13:19:30Z</time>
      </trkpt>
      <trkpt lat="44.03483" lon="0.36922">
        <ele>75</ele>
        <time>2022-04-17T13:20:24Z</time>
      </trkpt>
      <trkpt lat="44.03449" lon="0.36904">
        <ele>73</ele>
        <time>2022-04-17T13:21:12Z</time>
      </trkpt>
      <trkpt lat="44.03422" lon="0.36896">
        <ele>73</ele>
        <time>2022-04-17T13:21:49Z</time>
      </trkpt>
      <trkpt lat="44.03362" lon="0.36884">
        <ele>71</ele>
        <time>2022-04-17T13:23:10Z</time>
      </trkpt>
      <trkpt lat="44.03295" lon="0.3689">
        <ele>70</ele>
        <time>2022-04-17T13:24:39Z</time>
      </trkpt>
      <trkpt lat="44.03291" lon="0.36876">
        <ele>69</ele>
        <time>2022-04-17T13:24:54Z</time>
      </trkpt>
      <trkpt lat="44.03276" lon="0.3682">
        <ele>66</ele>
        <time>2022-04-17T13:25:51Z</time>
      </trkpt>
      <trkpt lat="44.03276" lon="0.3678">
        <ele>65</ele>
        <time>2022-04-17T13:26:30Z</time>
      </trkpt>
      <trkpt lat="44.03279" lon="0.3674">
        <ele>65</ele>
        <time>2022-04-17T13:27:08Z</time>
      </trkpt>
      <trkpt lat="44.03288" lon="0.36703">
        <ele>64</ele>
        <time>2022-04-17T13:27:46Z</time>
      </trkpt>
      <trkpt lat="44.03457" lon="0.36164">
        <ele>72</ele>
        <time>2022-04-17T13:37:10Z</time>
      </trkpt>
      <trkpt lat="44.03467" lon="0.36138">
        <ele>72</ele>
        <time>2022-04-17T13:37:38Z</time>
      </trkpt>
      <trkpt lat="44.03452" lon="0.36134">
        <ele>72</ele>
        <time>2022-04-17T13:37:58Z</time>
      </trkpt>
      <trkpt lat="44.03428" lon="0.3612">
        <ele>72</ele>
        <time>2022-04-17T13:38:33Z</time>
      </trkpt>
      <trkpt lat="44.03397" lon="0.36098">
        <ele>72</ele>
        <time>2022-04-17T13:39:20Z</time>
      </trkpt>
      <trkpt lat="44.03412" lon="0.36068">
        <ele>72</ele>
        <time>2022-04-17T13:39:55Z</time>
      </trkpt>
      <trkpt lat="44.03416" lon="0.36055">
        <ele>72</ele>
        <time>2022-04-17T13:40:08Z</time>
      </trkpt>
      <trkpt lat="44.0342" lon="0.36033">
        <ele>72</ele>
        <time>2022-04-17T13:40:30Z</time>
      </trkpt>
      <trkpt lat="44.03423" lon="0.36012">
        <ele>72</ele>
        <time>2022-04-17T13:40:51Z</time>
      </trkpt>
      <trkpt lat="44.0343" lon="0.35862">
        <ele>75</ele>
        <time>2022-04-17T13:43:15Z</time>
      </trkpt>
      <trkpt lat="44.03429" lon="0.35842">
        <ele>76</ele>
        <time>2022-04-17T13:43:34Z</time>
      </trkpt>
      <trkpt lat="44.03426" lon="0.35821">
        <ele>78</ele>
        <time>2022-04-17T13:43:55Z</time>
      </trkpt>
      <trkpt lat="44.03422" lon="0.35808">
        <ele>79</ele>
        <time>2022-04-17T13:44:08Z</time>
      </trkpt>
      <trkpt lat="44.03413" lon="0.3579">
        <ele>81</ele>
        <time>2022-04-17T13:44:29Z</time>
      </trkpt>
      <trkpt lat="44.03401" lon="0.35776">
        <ele>82</ele>
        <time>2022-04-17T13:44:50Z</time>
      </trkpt>
      <trkpt lat="44.03366" lon="0.35747">
        <ele>83</ele>
        <time>2022-04-17T13:45:44Z</time>
      </trkpt>
      <trkpt lat="44.03354" lon="0.35731">
        <ele>84</ele>
        <time>2022-04-17T13:46:07Z</time>
      </trkpt>
      <trkpt lat="44.03344" lon="0.35712">
        <ele>85</ele>
        <time>2022-04-17T13:46:29Z</time>
      </trkpt>
      <trkpt lat="44.03333" lon="0.3567">
        <ele>87</ele>
        <time>2022-04-17T13:47:12Z</time>
      </trkpt>
      <trkpt lat="44.03328" lon="0.35646">
        <ele>88</ele>
        <time>2022-04-17T13:47:36Z</time>
      </trkpt>
      <trkpt lat="44.03327" lon="0.35628">
        <ele>88</ele>
        <time>2022-04-17T13:47:53Z</time>
      </trkpt>
      <trkpt lat="44.0333" lon="0.35612">
        <ele>89</ele>
        <time>2022-04-17T13:48:09Z</time>
      </trkpt>
      <trkpt lat="44.03338" lon="0.35594">
        <ele>90</ele>
        <time>2022-04-17T13:48:29Z</time>
      </trkpt>
      <trkpt lat="44.03371" lon="0.35547">
        <ele>93</ele>
        <time>2022-04-17T13:49:33Z</time>
      </trkpt>
      <trkpt lat="44.03385" lon="0.35532">
        <ele>94</ele>
        <time>2022-04-17T13:49:56Z</time>
      </trkpt>
      <trkpt lat="44.03397" lon="0.35527">
        <ele>95</ele>
        <time>2022-04-17T13:50:13Z</time>
      </trkpt>
      <trkpt lat="44.03421" lon="0.35523">
        <ele>96</ele>
        <time>2022-04-17T13:50:45Z</time>
      </trkpt>
      <trkpt lat="44.03439" lon="0.35515">
        <ele>97</ele>
        <time>2022-04-17T13:51:10Z</time>
      </trkpt>
      <trkpt lat="44.03453" lon="0.35504">
        <ele>98</ele>
        <time>2022-04-17T13:51:32Z</time>
      </trkpt>
      <trkpt lat="44.03466" lon="0.3549">
        <ele>99</ele>
        <time>2022-04-17T13:51:54Z</time>
      </trkpt>
      <trkpt lat="44.03502" lon="0.3544">
        <ele>100</ele>
        <time>2022-04-17T13:53:02Z</time>
      </trkpt>
      <trkpt lat="44.03518" lon="0.35407">
        <ele>100</ele>
        <time>2022-04-17T13:53:40Z</time>
      </trkpt>
      <trkpt lat="44.03561" lon="0.3526">
        <ele>104</ele>
        <time>2022-04-17T13:56:12Z</time>
      </trkpt>
      <trkpt lat="44.03563" lon="0.35228">
        <ele>106</ele>
        <time>2022-04-17T13:56:43Z</time>
      </trkpt>
      <trkpt lat="44.03559" lon="0.35193">
        <ele>107</ele>
        <time>2022-04-17T13:57:17Z</time>
      </trkpt>
      <trkpt lat="44.03499" lon="0.34963">
        <ele>125</ele>
        <time>2022-04-17T14:01:12Z</time>
      </trkpt>
      <trkpt lat="44.0349" lon="0.34921">
        <ele>125</ele>
        <time>2022-04-17T14:01:54Z</time>
      </trkpt>
      <trkpt lat="44.03488" lon="0.34903">
        <ele>125</ele>
        <time>2022-04-17T14:02:11Z</time>
      </trkpt>
      <trkpt lat="44.03475" lon="0.34671">
        <ele>126</ele>
        <time>2022-04-17T14:05:54Z</time>
      </trkpt>
      <trkpt lat="44.03469" lon="0.34604">
        <ele>129</ele>
        <time>2022-04-17T14:06:59Z</time>
      </trkpt>
      <trkpt lat="44.03423" lon="0.34379">
        <ele>138</ele>
        <time>2022-04-17T14:10:44Z</time>
      </trkpt>
      <trkpt lat="44.03416" lon="0.34347">
        <ele>136</ele>
        <time>2022-04-17T14:11:16Z</time>
      </trkpt>
      <trkpt lat="44.03399" lon="0.34289">
        <ele>136</ele>
        <time>2022-04-17T14:12:16Z</time>
      </trkpt>
      <trkpt lat="44.03302" lon="0.34022">
        <ele>129</ele>
        <time>2022-04-17T14:17:03Z</time>
      </trkpt>
      <trkpt lat="44.03292" lon="0.34018">
        <ele>128</ele>
        <time>2022-04-17T14:17:17Z</time>
      </trkpt>
      <trkpt lat="44.0328" lon="0.34008">
        <ele>127</ele>
        <time>2022-04-17T14:17:35Z</time>
      </trkpt>
      <trkpt lat="44.03292" lon="0.34018">
        <ele>128</ele>
        <time>2022-04-17T14:17:54Z</time>
      </trkpt>
      <trkpt lat="44.03302" lon="0.34022">
        <ele>129</ele>
        <time>2022-04-17T14:18:08Z</time>
      </trkpt>
      <trkpt lat="44.03301" lon="0.33999">
        <ele>128</ele>
        <time>2022-04-17T14:18:30Z</time>
      </trkpt>
      <trkpt lat="44.03304" lon="0.33971">
        <ele>129</ele>
        <time>2022-04-17T14:18:57Z</time>
      </trkpt>
      <trkpt lat="44.03312" lon="0.33939">
        <ele>129</ele>
        <time>2022-04-17T14:19:30Z</time>
      </trkpt>
      <trkpt lat="44.03318" lon="0.33897">
        <ele>129</ele>
        <time>2022-04-17T14:20:11Z</time>
      </trkpt>
      <trkpt lat="44.03315" lon="0.33812">
        <ele>129</ele>
        <time>2022-04-17T14:21:32Z</time>
      </trkpt>
      <trkpt lat="44.03304" lon="0.33601">
        <ele>122</ele>
        <time>2022-04-17T14:24:55Z</time>
      </trkpt>
      <trkpt lat="44.03298" lon="0.33567">
        <ele>121</ele>
        <time>2022-04-17T14:25:29Z</time>
      </trkpt>
      <trkpt lat="44.0328" lon="0.33509">
        <ele>119</ele>
        <time>2022-04-17T14:26:29Z</time>
      </trkpt>
      <trkpt lat="44.03265" lon="0.33475">
        <ele>117</ele>
        <time>2022-04-17T14:27:08Z</time>
      </trkpt>
      <trkpt lat="44.03242" lon="0.33437">
        <ele>116</ele>
        <time>2022-04-17T14:27:55Z</time>
      </trkpt>
      <trkpt lat="44.03229" lon="0.33409">
        <ele>115</ele>
        <time>2022-04-17T14:28:27Z</time>
      </trkpt>
      <trkpt lat="44.03114" lon="0.33125">
        <ele>110</ele>
        <time>2022-04-17T14:33:40Z</time>
      </trkpt>
      <trkpt lat="44.03106" lon="0.3311">
        <ele>109</ele>
        <time>2022-04-17T14:33:58Z</time>
      </trkpt>
      <trkpt lat="44.03089" lon="0.33088">
        <ele>108</ele>
        <time>2022-04-17T14:34:29Z</time>
      </trkpt>
      <trkpt lat="44.03023" lon="0.33037">
        <ele>105</ele>
        <time>2022-04-17T14:36:10Z</time>
      </trkpt>
      <trkpt lat="44.03009" lon="0.33019">
        <ele>104</ele>
        <time>2022-04-17T14:36:35Z</time>
      </trkpt>
      <trkpt lat="44.03007" lon="0.33006">
        <ele>103</ele>
        <time>2022-04-17T14:36:48Z</time>
      </trkpt>
      <trkpt lat="44.03007" lon="0.32981">
        <ele>103</ele>
        <time>2022-04-17T14:37:12Z</time>
      </trkpt>
      <trkpt lat="44.03033" lon="0.3287">
        <ele>101</ele>
        <time>2022-04-17T14:39:04Z</time>
      </trkpt>
      <trkpt lat="44.03078" lon="0.32604">
        <ele>86</ele>
        <time>2022-04-17T14:43:26Z</time>
      </trkpt>
      <trkpt lat="44.03077" lon="0.32589">
        <ele>86</ele>
        <time>2022-04-17T14:43:41Z</time>
      </trkpt>
      <trkpt lat="44.03075" lon="0.32575">
        <ele>85</ele>
        <time>2022-04-17T14:43:54Z</time>
      </trkpt>
      <trkpt lat="44.03071" lon="0.32564">
        <ele>84</ele>
        <time>2022-04-17T14:44:06Z</time>
      </trkpt>
      <trkpt lat="44.03065" lon="0.32553">
        <ele>84</ele>
        <time>2022-04-17T14:44:19Z</time>
      </trkpt>
      <trkpt lat="44.03046" lon="0.32535">
        <ele>83</ele>
        <time>2022-04-17T14:44:50Z</time>
      </trkpt>
      <trkpt lat="44.03014" lon="0.32511">
        <ele>81</ele>
        <time>2022-04-17T14:45:39Z</time>
      </trkpt>
      <trkpt lat="44.02993" lon="0.32489">
        <ele>80</ele>
        <time>2022-04-17T14:46:14Z</time>
      </trkpt>
      <trkpt lat="44.02982" lon="0.32471">
        <ele>79</ele>
        <time>2022-04-17T14:46:36Z</time>
      </trkpt>
      <trkpt lat="44.02969" lon="0.32442">
        <ele>78</ele>
        <time>2022-04-17T14:47:09Z</time>
      </trkpt>
      <trkpt lat="44.02963" lon="0.32414">
        <ele>77</ele>
        <time>2022-04-17T14:47:37Z</time>
      </trkpt>
      <trkpt lat="44.02961" lon="0.32379">
        <ele>76</ele>
        <time>2022-04-17T14:48:11Z</time>
      </trkpt>
      <trkpt lat="44.02973" lon="0.31898">
        <ele>67</ele>
        <time>2022-04-17T14:55:53Z</time>
      </trkpt>
      <trkpt lat="44.02976" lon="0.31863">
        <ele>67</ele>
        <time>2022-04-17T14:56:26Z</time>
      </trkpt>
      <trkpt lat="44.02983" lon="0.31836">
        <ele>68</ele>
        <time>2022-04-17T14:56:54Z</time>
      </trkpt>
      <trkpt lat="44.02993" lon="0.31811">
        <ele>68</ele>
        <time>2022-04-17T14:57:21Z</time>
      </trkpt>
      <trkpt lat="44.03083" lon="0.31581">
        <ele>78</ele>
        <time>2022-04-17T15:01:33Z</time>
      </trkpt>
      <trkpt lat="44.0309" lon="0.31558">
        <ele>79</ele>
        <time>2022-04-17T15:01:57Z</time>
      </trkpt>
      <trkpt lat="44.03144" lon="0.31372">
        <ele>85</ele>
        <time>2022-04-17T15:05:09Z</time>
      </trkpt>
      <trkpt lat="44.03162" lon="0.31331">
        <ele>86</ele>
        <time>2022-04-17T15:05:55Z</time>
      </trkpt>
      <trkpt lat="44.03168" lon="0.3132">
        <ele>87</ele>
        <time>2022-04-17T15:06:08Z</time>
      </trkpt>
      <trkpt lat="44.03315" lon="0.3113">
        <ele>93</ele>
        <time>2022-04-17T15:10:36Z</time>
      </trkpt>
      <trkpt lat="44.03355" lon="0.31071">
        <ele>93</ele>
        <time>2022-04-17T15:11:54Z</time>
      </trkpt>
      <trkpt lat="44.03371" lon="0.31043">
        <ele>94</ele>
        <time>2022-04-17T15:12:28Z</time>
      </trkpt>
      <trkpt lat="44.0338" lon="0.3102">
        <ele>95</ele>
        <time>2022-04-17T15:12:53Z</time>
      </trkpt>
      <trkpt lat="44.0342" lon="0.30875">
        <ele>95</ele>
        <time>2022-04-17T15:15:22Z</time>
      </trkpt>
      <trkpt lat="44.03428" lon="0.3084">
        <ele>96</ele>
        <time>2022-04-17T15:15:58Z</time>
      </trkpt>
      <trkpt lat="44.03452" lon="0.30686">
        <ele>97</ele>
        <time>2022-04-17T15:18:29Z</time>
      </trkpt>
      <trkpt lat="44.03461" lon="0.30649">
        <ele>97</ele>
        <time>2022-04-17T15:19:06Z</time>
      </trkpt>
      <trkpt lat="44.03466" lon="0.30633">
        <ele>97</ele>
        <time>2022-04-17T15:19:23Z</time>
      </trkpt>
      <trkpt lat="44.03481" lon="0.30601">
        <ele>98</ele>
        <time>2022-04-17T15:20:00Z</time>
      </trkpt>
      <trkpt lat="44.03516" lon="0.3054">
        <ele>99</ele>
        <time>2022-04-17T15:21:15Z</time>
      </trkpt>
      <trkpt lat="44.03523" lon="0.30524">
        <ele>100</ele>
        <time>2022-04-17T15:21:33Z</time>
      </trkpt>
      <trkpt lat="44.0354" lon="0.30468">
        <ele>101</ele>
        <time>2022-04-17T15:22:31Z</time>
      </trkpt>
      <trkpt lat="44.03549" lon="0.30449">
        <ele>102</ele>
        <time>2022-04-17T15:22:53Z</time>
      </trkpt>
      <trkpt lat="44.03574" lon="0.30411">
        <ele>102</ele>
        <time>2022-04-17T15:23:42Z</time>
      </trkpt>
      <trkpt lat="44.03586" lon="0.30385">
        <ele>103</ele>
        <time>2022-04-17T15:24:12Z</time>
      </trkpt>
      <trkpt lat="44.03657" lon="0.30211">
        <ele>107</ele>
        <time>2022-04-17T15:27:24Z</time>
      </trkpt>
      <trkpt lat="44.03697" lon="0.30136">
        <ele>108</ele>
        <time>2022-04-17T15:28:53Z</time>
      </trkpt>
      <trkpt lat="44.03712" lon="0.30094">
        <ele>108</ele>
        <time>2022-04-17T15:29:38Z</time>
      </trkpt>
      <trkpt lat="44.03732" lon="0.30023">
        <ele>107</ele>
        <time>2022-04-17T15:30:51Z</time>
      </trkpt>
      <trkpt lat="44.0378" lon="0.29837">
        <ele>102</ele>
        <time>2022-04-17T15:34:01Z</time>
      </trkpt>
      <trkpt lat="44.03804" lon="0.29725">
        <ele>100</ele>
        <time>2022-04-17T15:35:53Z</time>
      </trkpt>
      <trkpt lat="44.0379" lon="0.29711">
        <ele>101</ele>
        <time>2022-04-17T15:36:16Z</time>
      </trkpt>
      <trkpt lat="44.03804" lon="0.29725">
        <ele>100</ele>
        <time>2022-04-17T15:36:39Z</time>
      </trkpt>
      <trkpt lat="44.03807" lon="0.29709">
        <ele>100</ele>
        <time>2022-04-17T15:36:55Z</time>
      </trkpt>
      <trkpt lat="44.03806" lon="0.29696">
        <ele>100</ele>
        <time>2022-04-17T15:37:08Z</time>
      </trkpt>
      <trkpt lat="44.03802" lon="0.29684">
        <ele>100</ele>
        <time>2022-04-17T15:37:20Z</time>
      </trkpt>
      <trkpt lat="44.03762" lon="0.2964">
        <ele>100</ele>
        <time>2022-04-17T15:38:28Z</time>
      </trkpt>
      <trkpt lat="44.03711" lon="0.29562">
        <ele>101</ele>
        <time>2022-04-17T15:40:09Z</time>
      </trkpt>
      <trkpt lat="44.03624" lon="0.29451">
        <ele>102</ele>
        <time>2022-04-17T15:42:47Z</time>
      </trkpt>
      <trkpt lat="44.03607" lon="0.29433">
        <ele>102</ele>
        <time>2022-04-17T15:43:15Z</time>
      </trkpt>
      <trkpt lat="44.03597" lon="0.29425">
        <ele>103</ele>
        <time>2022-04-17T15:43:31Z</time>
      </trkpt>
      <trkpt lat="44.03576" lon="0.29414">
        <ele>103</ele>
        <time>2022-04-17T15:44:01Z</time>
      </trkpt>
      <trkpt lat="44.03565" lon="0.29402">
        <ele>103</ele>
        <time>2022-04-17T15:44:19Z</time>
      </trkpt>
      <trkpt lat="44.0355" lon="0.29366">
        <ele>103</ele>
        <time>2022-04-17T15:44:59Z</time>
      </trkpt>
      <trkpt lat="44.03466" lon="0.2926">
        <ele>102</ele>
        <time>2022-04-17T15:47:31Z</time>
      </trkpt>
      <trkpt lat="44.03403" lon="0.29207">
        <ele>104</ele>
        <time>2022-04-17T15:49:09Z</time>
      </trkpt>
      <trkpt lat="44.03354" lon="0.29163">
        <ele>105</ele>
        <time>2022-04-17T15:50:27Z</time>
      </trkpt>
      <trkpt lat="44.03277" lon="0.29085">
        <ele>106</ele>
        <time>2022-04-17T15:52:34Z</time>
      </trkpt>
      <trkpt lat="44.03266" lon="0.29066">
        <ele>106</ele>
        <time>2022-04-17T15:52:57Z</time>
      </trkpt>
      <trkpt lat="44.03263" lon="0.29054">
        <ele>107</ele>
        <time>2022-04-17T15:53:10Z</time>
      </trkpt>
      <trkpt lat="44.03263" lon="0.2896">
        <ele>107</ele>
        <time>2022-04-17T15:54:40Z</time>
      </trkpt>
      <trkpt lat="44.03271" lon="0.28953">
        <ele>106</ele>
        <time>2022-04-17T15:54:52Z</time>
      </trkpt>
      <trkpt lat="44.03216" lon="0.28802">
        <ele>108</ele>
        <time>2022-04-17T15:57:35Z</time>
      </trkpt>
      <trkpt lat="44.03199" lon="0.28761">
        <ele>107</ele>
        <time>2022-04-17T15:58:20Z</time>
      </trkpt>
      <trkpt lat="44.03192" lon="0.28753">
        <ele>107</ele>
        <time>2022-04-17T15:58:32Z</time>
      </trkpt>
      <trkpt lat="44.03177" lon="0.28742">
        <ele>108</ele>
        <time>2022-04-17T15:58:55Z</time>
      </trkpt>
      <trkpt lat="44.03109" lon="0.28731">
        <ele>110</ele>
        <time>2022-04-17T16:00:26Z</time>
      </trkpt>
      <trkpt lat="44.03087" lon="0.28722">
        <ele>111</ele>
        <time>2022-04-17T16:00:57Z</time>
      </trkpt>
      <trkpt lat="44.03068" lon="0.28708">
        <ele>112</ele>
        <time>2022-04-17T16:01:25Z</time>
      </trkpt>
      <trkpt lat="44.03041" lon="0.28679">
        <ele>114</ele>
        <time>2022-04-17T16:02:11Z</time>
      </trkpt>
      <trkpt lat="44.03024" lon="0.28652">
        <ele>115</ele>
        <time>2022-04-17T16:02:45Z</time>
      </trkpt>
      <trkpt lat="44.03016" lon="0.28634">
        <ele>116</ele>
        <time>2022-04-17T16:03:06Z</time>
      </trkpt>
      <trkpt lat="44.02976" lon="0.28468">
        <ele>116</ele>
        <time>2022-04-17T16:05:54Z</time>
      </trkpt>
      <trkpt lat="44.02963" lon="0.28432">
        <ele>116</ele>
        <time>2022-04-17T16:06:32Z</time>
      </trkpt>
      <trkpt lat="44.02925" lon="0.28348">
        <ele>118</ele>
        <time>2022-04-17T16:08:08Z</time>
      </trkpt>
      <trkpt lat="44.02884" lon="0.28266">
        <ele>119</ele>
        <time>2022-04-17T16:09:43Z</time>
      </trkpt>
      <trkpt lat="44.0286" lon="0.28228">
        <ele>119</ele>
        <time>2022-04-17T16:10:32Z</time>
      </trkpt>
      <trkpt lat="44.02842" lon="0.28205">
        <ele>118</ele>
        <time>2022-04-17T16:11:05Z</time>
      </trkpt>
      <trkpt lat="44.02749" lon="0.28095">
        <ele>120</ele>
        <time>2022-04-17T16:13:47Z</time>
      </trkpt>
      <trkpt lat="44.02739" lon="0.28081">
        <ele>121</ele>
        <time>2022-04-17T16:14:06Z</time>
      </trkpt>
      <trkpt lat="44.02729" lon="0.28065">
        <ele>122</ele>
        <time>2022-04-17T16:14:27Z</time>
      </trkpt>
      <trkpt lat="44.02666" lon="0.27901">
        <ele>124</ele>
        <time>2022-04-17T16:17:25Z</time>
      </trkpt>
      <trkpt lat="44.02659" lon="0.27888">
        <ele>125</ele>
        <time>2022-04-17T16:17:41Z</time>
      </trkpt>
      <trkpt lat="44.02645" lon="0.27867">
        <ele>126</ele>
        <time>2022-04-17T16:18:08Z</time>
      </trkpt>
      <trkpt lat="44.02388" lon="0.27652">
        <ele>137</ele>
        <time>2022-04-17T16:24:48Z</time>
      </trkpt>
      <trkpt lat="44.02363" lon="0.27627">
        <ele>140</ele>
        <time>2022-04-17T16:25:30Z</time>
      </trkpt>
      <trkpt lat="44.02356" lon="0.27613">
        <ele>141</ele>
        <time>2022-04-17T16:25:46Z</time>
      </trkpt>
      <trkpt lat="44.02351" lon="0.27597">
        <ele>141</ele>
        <time>2022-04-17T16:26:03Z</time>
      </trkpt>
      <trkpt lat="44.02348" lon="0.27583">
        <ele>141</ele>
        <time>2022-04-17T16:26:17Z</time>
      </trkpt>
      <trkpt lat="44.02347" lon="0.27562">
        <ele>142</ele>
        <time>2022-04-17T16:26:37Z</time>
      </trkpt>
      <trkpt lat="44.02348" lon="0.27545">
        <ele>142</ele>
        <time>2022-04-17T16:26:53Z</time>
      </trkpt>
      <trkpt lat="44.02364" lon="0.27442">
        <ele>144</ele>
        <time>2022-04-17T16:28:34Z</time>
      </trkpt>
      <trkpt lat="44.02362" lon="0.27413">
        <ele>145</ele>
        <time>2022-04-17T16:29:02Z</time>
      </trkpt>
      <trkpt lat="44.02355" lon="0.27386">
        <ele>146</ele>
        <time>2022-04-17T16:29:30Z</time>
      </trkpt>
      <trkpt lat="44.02227" lon="0.27119">
        <ele>141</ele>
        <time>2022-04-17T16:34:38Z</time>
      </trkpt>
      <trkpt lat="44.02211" lon="0.27099">
        <ele>141</ele>
        <time>2022-04-17T16:35:06Z</time>
      </trkpt>
      <trkpt lat="44.02189" lon="0.27082">
        <ele>143</ele>
        <time>2022-04-17T16:35:40Z</time>
      </trkpt>
      <trkpt lat="44.0218" lon="0.27077">
        <ele>143</ele>
        <time>2022-04-17T16:35:53Z</time>
      </trkpt>
      <trkpt lat="44.02125" lon="0.27061">
        <ele>148</ele>
        <time>2022-04-17T16:37:08Z</time>
      </trkpt>
      <trkpt lat="44.02107" lon="0.27059">
        <ele>150</ele>
        <time>2022-04-17T16:37:32Z</time>
      </trkpt>
      <trkpt lat="44.02092" lon="0.2706">
        <ele>151</ele>
        <time>2022-04-17T16:37:52Z</time>
      </trkpt>
      <trkpt lat="44.02078" lon="0.27064">
        <ele>153</ele>
        <time>2022-04-17T16:38:11Z</time>
      </trkpt>
      <trkpt lat="44.02056" lon="0.27076">
        <ele>154</ele>
        <time>2022-04-17T16:38:43Z</time>
      </trkpt>
      <trkpt lat="44.02039" lon="0.27093">
        <ele>155</ele>
        <time>2022-04-17T16:39:11Z</time>
      </trkpt>
      <trkpt lat="44.02024" lon="0.27115">
        <ele>155</ele>
        <time>2022-04-17T16:39:40Z</time>
      </trkpt>
      <trkpt lat="44.0186" lon="0.27408">
        <ele>156</ele>
        <time>2022-04-17T16:45:36Z</time>
      </trkpt>
      <trkpt lat="44.01842" lon="0.27429">
        <ele>155</ele>
        <time>2022-04-17T16:46:07Z</time>
      </trkpt>
      <trkpt lat="44.01832" lon="0.27436">
        <ele>154</ele>
        <time>2022-04-17T16:46:22Z</time>
      </trkpt>
      <trkpt lat="44.01813" lon="0.27445">
        <ele>152</ele>
        <time>2022-04-17T16:46:49Z</time>
      </trkpt>
      <trkpt lat="44.0179" lon="0.27441">
        <ele>149</ele>
        <time>2022-04-17T16:47:20Z</time>
      </trkpt>
      <trkpt lat="44.0178" lon="0.27437">
        <ele>148</ele>
        <time>2022-04-17T16:47:34Z</time>
      </trkpt>
      <trkpt lat="44.0176" lon="0.27423">
        <ele>146</ele>
        <time>2022-04-17T16:48:04Z</time>
      </trkpt>
      <trkpt lat="44.01752" lon="0.27413">
        <ele>145</ele>
        <time>2022-04-17T16:48:18Z</time>
      </trkpt>
      <trkpt lat="44.0159" lon="0.27178">
        <ele>133</ele>
        <time>2022-04-17T16:53:31Z</time>
      </trkpt>
      <trkpt lat="44.01577" lon="0.27152">
        <ele>131</ele>
        <time>2022-04-17T16:54:01Z</time>
      </trkpt>
      <trkpt lat="44.01569" lon="0.27127">
        <ele>131</ele>
        <time>2022-04-17T16:54:27Z</time>
      </trkpt>
      <trkpt lat="44.01434" lon="0.26544">
        <ele>110</ele>
        <time>2022-04-17T17:04:15Z</time>
      </trkpt>
      <trkpt lat="44.01426" lon="0.26513">
        <ele>108</ele>
        <time>2022-04-17T17:04:47Z</time>
      </trkpt>
      <trkpt lat="44.01415" lon="0.26482">
        <ele>107</ele>
        <time>2022-04-17T17:05:20Z</time>
      </trkpt>
      <trkpt lat="44.01408" lon="0.26467">
        <ele>108</ele>
        <time>2022-04-17T17:05:37Z</time>
      </trkpt>
      <trkpt lat="44.01332" lon="0.26318">
        <ele>103</ele>
        <time>2022-04-17T17:08:32Z</time>
      </trkpt>
      <trkpt lat="44.0128" lon="0.26173">
        <ele>98</ele>
        <time>2022-04-17T17:11:08Z</time>
      </trkpt>
      <trkpt lat="44.0126" lon="0.26111">
        <ele>96</ele>
        <time>2022-04-17T17:12:13Z</time>
      </trkpt>
      <trkpt lat="44.01294" lon="0.25742">
        <ele>93</ele>
        <time>2022-04-17T17:18:10Z</time>
      </trkpt>
      <trkpt lat="44.013" lon="0.25707">
        <ele>93</ele>
        <time>2022-04-17T17:18:45Z</time>
      </trkpt>
      <trkpt lat="44.01305" lon="0.2569">
        <ele>93</ele>
        <time>2022-04-17T17:19:02Z</time>
      </trkpt>
      <trkpt lat="44.01322" lon="0.25653">
        <ele>93</ele>
        <time>2022-04-17T17:19:44Z</time>
      </trkpt>
      <trkpt lat="44.0139" lon="0.25545">
        <ele>91</ele>
        <time>2022-04-17T17:22:02Z</time>
      </trkpt>
      <trkpt lat="44.01399" lon="0.25526">
        <ele>91</ele>
        <time>2022-04-17T17:22:24Z</time>
      </trkpt>
      <trkpt lat="44.01408" lon="0.25502">
        <ele>91</ele>
        <time>2022-04-17T17:22:50Z</time>
      </trkpt>
      <trkpt lat="44.01412" lon="0.25481">
        <ele>91</ele>
        <time>2022-04-17T17:23:11Z</time>
      </trkpt>
      <trkpt lat="44.01442" lon="0.25281">
        <ele>92</ele>
        <time>2022-04-17T17:26:27Z</time>
      </trkpt>
      <trkpt lat="44.01447" lon="0.25265">
        <ele>92</ele>
        <time>2022-04-17T17:26:44Z</time>
      </trkpt>
      <trkpt lat="44.01458" lon="0.25231">
        <ele>91</ele>
        <time>2022-04-17T17:27:19Z</time>
      </trkpt>
      <trkpt lat="44.01487" lon="0.25178">
        <ele>90</ele>
        <time>2022-04-17T17:28:23Z</time>
      </trkpt>
      <trkpt lat="44.01503" lon="0.25143">
        <ele>90</ele>
        <time>2022-04-17T17:29:03Z</time>
      </trkpt>
      <trkpt lat="44.01519" lon="0.25086">
        <ele>89</ele>
        <time>2022-04-17T17:30:02Z</time>
      </trkpt>
      <trkpt lat="44.01553" lon="0.24993">
        <ele>89</ele>
        <time>2022-04-17T17:31:42Z</time>
      </trkpt>
      <trkpt lat="44.01558" lon="0.24975">
        <ele>90</ele>
        <time>2022-04-17T17:32:00Z</time>
      </trkpt>
      <trkpt lat="44.01572" lon="0.24903">
        <ele>93</ele>
        <time>2022-04-17T17:33:12Z</time>
      </trkpt>
      <trkpt lat="44.01583" lon="0.24874">
        <ele>95</ele>
        <time>2022-04-17T17:33:43Z</time>
      </trkpt>
      <trkpt lat="44.01615" lon="0.24813">
        <ele>97</ele>
        <time>2022-04-17T17:34:56Z</time>
      </trkpt>
      <trkpt lat="44.01631" lon="0.2479">
        <ele>97</ele>
        <time>2022-04-17T17:35:27Z</time>
      </trkpt>
      <trkpt lat="44.01632" lon="0.24756">
        <ele>96</ele>
        <time>2022-04-17T17:35:59Z</time>
      </trkpt>
      <trkpt lat="44.01636" lon="0.24742">
        <ele>96</ele>
        <time>2022-04-17T17:36:14Z</time>
      </trkpt>
      <trkpt lat="44.01672" lon="0.24757">
        <ele>98</ele>
        <time>2022-04-17T17:37:04Z</time>
      </trkpt>
      <trkpt lat="44.01676" lon="0.24761">
        <ele>98</ele>
        <time>2022-04-17T17:37:10Z</time>
      </trkpt>
      <trkpt lat="44.01683" lon="0.24776">
        <ele>99</ele>
        <time>2022-04-17T17:37:28Z</time>
      </trkpt>
      <trkpt lat="44.01687" lon="0.24757">
        <ele>98</ele>
        <time>2022-04-17T17:37:47Z</time>
      </trkpt>
      <trkpt lat="44.01687" lon="0.24746">
        <ele>98</ele>
        <time>2022-04-17T17:37:57Z</time>
      </trkpt>
      <trkpt lat="44.01682" lon="0.24733">
        <ele>97</ele>
        <time>2022-04-17T17:38:11Z</time>
      </trkpt>
      <trkpt lat="44.01648" lon="0.24701">
        <ele>94</ele>
        <time>2022-04-17T17:39:06Z</time>
      </trkpt>
      <trkpt lat="44.01631" lon="0.24689">
        <ele>93</ele>
        <time>2022-04-17T17:39:32Z</time>
      </trkpt>
      <trkpt lat="44.01615" lon="0.24686">
        <ele>92</ele>
        <time>2022-04-17T17:39:53Z</time>
      </trkpt>
      <trkpt lat="44.0158" lon="0.24687">
        <ele>91</ele>
        <time>2022-04-17T17:40:40Z</time>
      </trkpt>
      <trkpt lat="44.0157" lon="0.24685">
        <ele>89</ele>
        <time>2022-04-17T17:40:53Z</time>
      </trkpt>
      <trkpt lat="44.01551" lon="0.24673">
        <ele>86</ele>
        <time>2022-04-17T17:41:21Z</time>
      </trkpt>
      <trkpt lat="44.01421" lon="0.24558">
        <ele>81</ele>
        <time>2022-04-17T17:44:47Z</time>
      </trkpt>
      <trkpt lat="44.01381" lon="0.24647">
        <ele>82</ele>
        <time>2022-04-17T17:46:27Z</time>
      </trkpt>
      <trkpt lat="44.01374" lon="0.24658">
        <ele>83</ele>
        <time>2022-04-17T17:46:42Z</time>
      </trkpt>
      <trkpt lat="44.01363" lon="0.2467">
        <ele>84</ele>
        <time>2022-04-17T17:47:00Z</time>
      </trkpt>
      <trkpt lat="44.01337" lon="0.24693">
        <ele>87</ele>
        <time>2022-04-17T17:47:41Z</time>
      </trkpt>
      <trkpt lat="44.01313" lon="0.24709">
        <ele>89</ele>
        <time>2022-04-17T17:48:17Z</time>
      </trkpt>
      <trkpt lat="44.01207" lon="0.24765">
        <ele>94</ele>
        <time>2022-04-17T17:50:48Z</time>
      </trkpt>
      <trkpt lat="44.01188" lon="0.24772">
        <ele>95</ele>
        <time>2022-04-17T17:51:14Z</time>
      </trkpt>
      <trkpt lat="44.00992" lon="0.24825">
        <ele>99</ele>
        <time>2022-04-17T17:55:41Z</time>
      </trkpt>
      <trkpt lat="44.00599" lon="0.24874">
        <ele>114</ele>
        <time>2022-04-17T18:04:27Z</time>
      </trkpt>
      <trkpt lat="44.00572" lon="0.24872">
        <ele>116</ele>
        <time>2022-04-17T18:05:04Z</time>
      </trkpt>
      <trkpt lat="44.0056" lon="0.24869">
        <ele>116</ele>
        <time>2022-04-17T18:05:20Z</time>
      </trkpt>
      <trkpt lat="44.00457" lon="0.2483">
        <ele>116</ele>
        <time>2022-04-17T18:07:42Z</time>
      </trkpt>
      <trkpt lat="44.00434" lon="0.24827">
        <ele>117</ele>
        <time>2022-04-17T18:08:13Z</time>
      </trkpt>
      <trkpt lat="44.00398" lon="0.24834">
        <ele>118</ele>
        <time>2022-04-17T18:09:02Z</time>
      </trkpt>
      <trkpt lat="44.00382" lon="0.24832">
        <ele>118</ele>
        <time>2022-04-17T18:09:23Z</time>
      </trkpt>
      <trkpt lat="44.00342" lon="0.24819">
        <ele>120</ele>
        <time>2022-04-17T18:10:18Z</time>
      </trkpt>
      <trkpt lat="44.00231" lon="0.24771">
        <ele>124</ele>
        <time>2022-04-17T18:12:53Z</time>
      </trkpt>
      <trkpt lat="44.00208" lon="0.24763">
        <ele>125</ele>
        <time>2022-04-17T18:13:25Z</time>
      </trkpt>
      <trkpt lat="44.00172" lon="0.24755">
        <ele>126</ele>
        <time>2022-04-17T18:14:13Z</time>
      </trkpt>
      <trkpt lat="44.00104" lon="0.24703">
        <ele>128</ele>
        <time>2022-04-17T18:15:57Z</time>
      </trkpt>
      <trkpt lat="44.00077" lon="0.24688">
        <ele>129</ele>
        <time>2022-04-17T18:16:36Z</time>
      </trkpt>
      <trkpt lat="44.00036" lon="0.2467">
        <ele>129</ele>
        <time>2022-04-17T18:17:33Z</time>
      </trkpt>
      <trkpt lat="44.00009" lon="0.24656">
        <ele>129</ele>
        <time>2022-04-17T18:18:11Z</time>
      </trkpt>
      <trkpt lat="43.99895" lon="0.24584">
        <ele>125</ele>
        <time>2022-04-17T18:20:59Z</time>
      </trkpt>
      <trkpt lat="43.99888" lon="0.24585">
        <ele>125</ele>
        <time>2022-04-17T18:21:08Z</time>
      </trkpt>
      <trkpt lat="43.99881" lon="0.2459">
        <ele>126</ele>
        <time>2022-04-17T18:21:18Z</time>
      </trkpt>
      <trkpt lat="43.99875" lon="0.24596">
        <ele>126</ele>
        <time>2022-04-17T18:21:28Z</time>
      </trkpt>
      <trkpt lat="43.99909" lon="0.24472">
        <ele>123</ele>
        <time>2022-04-17T18:23:36Z</time>
      </trkpt>
      <trkpt lat="43.99963" lon="0.24332">
        <ele>121</ele>
        <time>2022-04-17T18:26:08Z</time>
      </trkpt>
      <trkpt lat="43.99968" lon="0.24317">
        <ele>121</ele>
        <time>2022-04-17T18:26:24Z</time>
      </trkpt>
      <trkpt lat="43.99972" lon="0.24302">
        <ele>121</ele>
        <time>2022-04-17T18:26:39Z</time>
      </trkpt>
      <trkpt lat="43.99973" lon="0.24287">
        <ele>121</ele>
        <time>2022-04-17T18:26:54Z</time>
      </trkpt>
      <trkpt lat="43.99969" lon="0.24268">
        <ele>121</ele>
        <time>2022-04-17T18:27:13Z</time>
      </trkpt>
      <trkpt lat="43.99958" lon="0.24251">
        <ele>120</ele>
        <time>2022-04-17T18:27:35Z</time>
      </trkpt>
      <trkpt lat="43.9983" lon="0.24138">
        <ele>112</ele>
        <time>2022-04-17T18:30:57Z</time>
      </trkpt>
      <trkpt lat="43.99803" lon="0.24118">
        <ele>112</ele>
        <time>2022-04-17T18:31:38Z</time>
      </trkpt>
      <trkpt lat="43.99741" lon="0.24084">
        <ele>112</ele>
        <time>2022-04-17T18:33:07Z</time>
      </trkpt>
      <trkpt lat="43.99711" lon="0.24062">
        <ele>109</ele>
        <time>2022-04-17T18:33:52Z</time>
      </trkpt>
      <trkpt lat="43.99703" lon="0.2405">
        <ele>108</ele>
        <time>2022-04-17T18:34:08Z</time>
      </trkpt>
      <trkpt lat="43.99688" lon="0.24021">
        <ele>105</ele>
        <time>2022-04-17T18:34:42Z</time>
      </trkpt>
      <trkpt lat="43.99675" lon="0.23999">
        <ele>104</ele>
        <time>2022-04-17T18:35:10Z</time>
      </trkpt>
      <trkpt lat="43.99645" lon="0.23968">
        <ele>101</ele>
        <time>2022-04-17T18:35:59Z</time>
      </trkpt>
      <trkpt lat="43.99554" lon="0.23903">
        <ele>91</ele>
        <time>2022-04-17T18:38:16Z</time>
      </trkpt>
      <trkpt lat="43.99544" lon="0.23891">
        <ele>90</ele>
        <time>2022-04-17T18:38:34Z</time>
      </trkpt>
      <trkpt lat="43.99539" lon="0.23881">
        <ele>89</ele>
        <time>2022-04-17T18:38:45Z</time>
      </trkpt>
      <trkpt lat="43.99537" lon="0.23865">
        <ele>89</ele>
        <time>2022-04-17T18:39:01Z</time>
      </trkpt>
      <trkpt lat="43.99539" lon="0.238">
        <ele>88</ele>
        <time>2022-04-17T18:40:03Z</time>
      </trkpt>
      <trkpt lat="43.99536" lon="0.23777">
        <ele>87</ele>
        <time>2022-04-17T18:40:26Z</time>
      </trkpt>
      <trkpt lat="43.99523" lon="0.23735">
        <ele>87</ele>
        <time>2022-04-17T18:41:10Z</time>
      </trkpt>
      <trkpt lat="43.9948" lon="0.2361">
        <ele>87</ele>
        <time>2022-04-17T18:43:23Z</time>
      </trkpt>
      <trkpt lat="43.99475" lon="0.23581">
        <ele>87</ele>
        <time>2022-04-17T18:43:51Z</time>
      </trkpt>
      <trkpt lat="43.99475" lon="0.23495">
        <ele>87</ele>
        <time>2022-04-17T18:45:14Z</time>
      </trkpt>
      <trkpt lat="43.99471" lon="0.23477">
        <ele>87</ele>
        <time>2022-04-17T18:45:32Z</time>
      </trkpt>
      <trkpt lat="43.99463" lon="0.23463">
        <ele>88</ele>
        <time>2022-04-17T18:45:49Z</time>
      </trkpt>
      <trkpt lat="43.99452" lon="0.2345">
        <ele>88</ele>
        <time>2022-04-17T18:46:08Z</time>
      </trkpt>
      <trkpt lat="43.99426" lon="0.23434">
        <ele>90</ele>
        <time>2022-04-17T18:46:46Z</time>
      </trkpt>
      <trkpt lat="43.99382" lon="0.23425">
        <ele>90</ele>
        <time>2022-04-17T18:47:46Z</time>
      </trkpt>
      <trkpt lat="43.99326" lon="0.23419">
        <ele>90</ele>
        <time>2022-04-17T18:49:01Z</time>
      </trkpt>
      <trkpt lat="43.99283" lon="0.23407">
        <ele>89</ele>
        <time>2022-04-17T18:49:59Z</time>
      </trkpt>
      <trkpt lat="43.99239" lon="0.23393">
        <ele>89</ele>
        <time>2022-04-17T18:50:59Z</time>
      </trkpt>
      <trkpt lat="43.99234" lon="0.23388">
        <ele>89</ele>
        <time>2022-04-17T18:51:08Z</time>
      </trkpt>
      <trkpt lat="43.9923" lon="0.23379">
        <ele>89</ele>
        <time>2022-04-17T18:51:18Z</time>
      </trkpt>
      <trkpt lat="43.9923" lon="0.23369">
        <ele>88</ele>
        <time>2022-04-17T18:51:27Z</time>
      </trkpt>
      <trkpt lat="43.99251" lon="0.23188">
        <ele>78</ele>
        <time>2022-04-17T18:54:23Z</time>
      </trkpt>
      <trkpt lat="43.9924" lon="0.23191">
        <ele>78</ele>
        <time>2022-04-17T18:54:38Z</time>
      </trkpt>
      <trkpt lat="43.99242" lon="0.23132">
        <ele>76</ele>
        <time>2022-04-17T18:55:35Z</time>
      </trkpt>
      <trkpt lat="43.99244" lon="0.23108">
        <ele>76</ele>
        <time>2022-04-17T18:55:58Z</time>
      </trkpt>
      <trkpt lat="43.99251" lon="0.23043">
        <ele>75</ele>
        <time>2022-04-17T18:57:01Z</time>
      </trkpt>
      <trkpt lat="43.9926" lon="0.2304">
        <ele>75</ele>
        <time>2022-04-17T18:57:14Z</time>
      </trkpt>
      <trkpt lat="43.99266" lon="0.23034">
        <ele>75</ele>
        <time>2022-04-17T18:57:24Z</time>
      </trkpt>
      <trkpt lat="43.99272" lon="0.23023">
        <ele>75</ele>
        <time>2022-04-17T18:57:37Z</time>
      </trkpt>
      <trkpt lat="43.99274" lon="0.23014">
        <ele>75</ele>
        <time>2022-04-17T18:57:46Z</time>
      </trkpt>
      <trkpt lat="43.99272" lon="0.22996">
        <ele>75</ele>
        <time>2022-04-17T18:58:03Z</time>
      </trkpt>
      <trkpt lat="43.99266" lon="0.22983">
        <ele>75</ele>
        <time>2022-04-17T18:58:18Z</time>
      </trkpt>
      <trkpt lat="43.99288" lon="0.2295">
        <ele>74</ele>
        <time>2022-04-17T18:59:01Z</time>
      </trkpt>
      <trkpt lat="43.99292" lon="0.2294">
        <ele>74</ele>
        <time>2022-04-17T18:59:12Z</time>
      </trkpt>
      <trkpt lat="43.99295" lon="0.22928">
        <ele>74</ele>
        <time>2022-04-17T18:59:25Z</time>
      </trkpt>
      <trkpt lat="43.99296" lon="0.22916">
        <ele>74</ele>
        <time>2022-04-17T18:59:36Z</time>
      </trkpt>
      <trkpt lat="43.99294" lon="0.22897">
        <ele>74</ele>
        <time>2022-04-17T18:59:55Z</time>
      </trkpt>
      <trkpt lat="43.99286" lon="0.22853">
        <ele>74</ele>
        <time>2022-04-17T19:00:38Z</time>
      </trkpt>
      <trkpt lat="43.99281" lon="0.22826">
        <ele>74</ele>
        <time>2022-04-17T19:01:05Z</time>
      </trkpt>
      <trkpt lat="43.99277" lon="0.22794">
        <ele>74</ele>
        <time>2022-04-17T19:01:36Z</time>
      </trkpt>
      <trkpt lat="43.99274" lon="0.22677">
        <ele>78</ele>
        <time>2022-04-17T19:03:28Z</time>
      </trkpt>
      <trkpt lat="43.99276" lon="0.2267">
        <ele>79</ele>
        <time>2022-04-17T19:03:36Z</time>
      </trkpt>
      <trkpt lat="43.99267" lon="0.22666">
        <ele>79</ele>
        <time>2022-04-17T19:03:48Z</time>
      </trkpt>
      <trkpt lat="43.99241" lon="0.22672">
        <ele>80</ele>
        <time>2022-04-17T19:04:23Z</time>
      </trkpt>
      <trkpt lat="43.99231" lon="0.22672">
        <ele>80</ele>
        <time>2022-04-17T19:04:37Z</time>
      </trkpt>
      <trkpt lat="43.99225" lon="0.22668">
        <ele>80</ele>
        <time>2022-04-17T19:04:46Z</time>
      </trkpt>
      <trkpt lat="43.9922" lon="0.22661">
        <ele>80</ele>
        <time>2022-04-17T19:04:55Z</time>
      </trkpt>
      <trkpt lat="43.99217" lon="0.22648">
        <ele>81</ele>
        <time>2022-04-17T19:05:08Z</time>
      </trkpt>
      <trkpt lat="43.99206" lon="0.22581">
        <ele>83</ele>
        <time>2022-04-17T19:06:14Z</time>
      </trkpt>
      <trkpt lat="43.99153" lon="0.22213">
        <ele>92</ele>
        <time>2022-04-17T19:12:15Z</time>
      </trkpt>
      <trkpt lat="43.99092" lon="0.21853">
        <ele>100</ele>
        <time>2022-04-17T19:18:10Z</time>
      </trkpt>
      <trkpt lat="43.99088" lon="0.21814">
        <ele>101</ele>
        <time>2022-04-17T19:18:47Z</time>
      </trkpt>
      <trkpt lat="43.99067" lon="0.2145">
        <ele>111</ele>
        <time>2022-04-17T19:24:38Z</time>
      </trkpt>
      <trkpt lat="43.99062" lon="0.21404">
        <ele>113</ele>
        <time>2022-04-17T19:25:23Z</time>
      </trkpt>
      <trkpt lat="43.99053" lon="0.21366">
        <ele>112</ele>
        <time>2022-04-17T19:26:01Z</time>
      </trkpt>
      <trkpt lat="43.9871" lon="0.20512">
        <ele>105</ele>
        <time>2022-04-17T19:41:40Z</time>
      </trkpt>
      <trkpt lat="43.98689" lon="0.20457">
        <ele>104</ele>
        <time>2022-04-17T19:42:40Z</time>
      </trkpt>
      <trkpt lat="43.98683" lon="0.20434">
        <ele>104</ele>
        <time>2022-04-17T19:43:03Z</time>
      </trkpt>
      <trkpt lat="43.9868" lon="0.20411">
        <ele>104</ele>
        <time>2022-04-17T19:43:26Z</time>
      </trkpt>
      <trkpt lat="43.98672" lon="0.20289">
        <ele>106</ele>
        <time>2022-04-17T19:45:24Z</time>
      </trkpt>
      <trkpt lat="43.98672" lon="0.20264">
        <ele>107</ele>
        <time>2022-04-17T19:45:48Z</time>
      </trkpt>
      <trkpt lat="43.98679" lon="0.20204">
        <ele>111</ele>
        <time>2022-04-17T19:46:46Z</time>
      </trkpt>
      <trkpt lat="43.98671" lon="0.20038">
        <ele>118</ele>
        <time>2022-04-17T19:49:26Z</time>
      </trkpt>
      <trkpt lat="43.98663" lon="0.19953">
        <ele>123</ele>
        <time>2022-04-17T19:50:48Z</time>
      </trkpt>
      <trkpt lat="43.98652" lon="0.19895">
        <ele>127</ele>
        <time>2022-04-17T19:51:46Z</time>
      </trkpt>
      <trkpt lat="43.98649" lon="0.19869">
        <ele>128</ele>
        <time>2022-04-17T19:52:11Z</time>
      </trkpt>
      <trkpt lat="43.98651" lon="0.19724">
        <ele>134</ele>
        <time>2022-04-17T19:54:30Z</time>
      </trkpt>
      <trkpt lat="43.9865" lon="0.197">
        <ele>135</ele>
        <time>2022-04-17T19:54:53Z</time>
      </trkpt>
      <trkpt lat="43.98647" lon="0.19682">
        <ele>135</ele>
        <time>2022-04-17T19:55:11Z</time>
      </trkpt>
      <trkpt lat="43.98614" lon="0.19601">
        <ele>132</ele>
        <time>2022-04-17T19:56:40Z</time>
      </trkpt>
      <trkpt lat="43.98605" lon="0.19568">
        <ele>132</ele>
        <time>2022-04-17T19:57:14Z</time>
      </trkpt>
      <trkpt lat="43.98554" lon="0.1935">
        <ele>130</ele>
        <time>2022-04-17T20:00:54Z</time>
      </trkpt>
      <trkpt lat="43.98505" lon="0.19162">
        <ele>133</ele>
        <time>2022-04-17T20:04:06Z</time>
      </trkpt>
      <trkpt lat="43.985" lon="0.19135">
        <ele>133</ele>
        <time>2022-04-17T20:04:33Z</time>
      </trkpt>
      <trkpt lat="43.98495" lon="0.19062">
        <ele>133</ele>
        <time>2022-04-17T20:05:43Z</time>
      </trkpt>
      <trkpt lat="43.98476" lon="0.18726">
        <ele>136</ele>
        <time>2022-04-17T20:11:07Z</time>
      </trkpt>
      <trkpt lat="43.98478" lon="0.18696">
        <ele>137</ele>
        <time>2022-04-17T20:11:36Z</time>
      </trkpt>
      <trkpt lat="43.98483" lon="0.18675">
        <ele>137</ele>
        <time>2022-04-17T20:11:57Z</time>
      </trkpt>
      <trkpt lat="43.98497" lon="0.1865">
        <ele>136</ele>
        <time>2022-04-17T20:12:28Z</time>
      </trkpt>
      <trkpt lat="43.98595" lon="0.18512">
        <ele>127</ele>
        <time>2022-04-17T20:15:34Z</time>
      </trkpt>
      <trkpt lat="43.98612" lon="0.18481">
        <ele>125</ele>
        <time>2022-04-17T20:16:11Z</time>
      </trkpt>
      <trkpt lat="43.98626" lon="0.18451">
        <ele>123</ele>
        <time>2022-04-17T20:16:46Z</time>
      </trkpt>
      <trkpt lat="43.98656" lon="0.1837">
        <ele>119</ele>
        <time>2022-04-17T20:18:13Z</time>
      </trkpt>
      <trkpt lat="43.98661" lon="0.18351">
        <ele>119</ele>
        <time>2022-04-17T20:18:32Z</time>
      </trkpt>
      <trkpt lat="43.98662" lon="0.18324">
        <ele>118</ele>
        <time>2022-04-17T20:18:58Z</time>
      </trkpt>
      <trkpt lat="43.9866" lon="0.18299">
        <ele>118</ele>
        <time>2022-04-17T20:19:23Z</time>
      </trkpt>
      <trkpt lat="43.98649" lon="0.18213">
        <ele>118</ele>
        <time>2022-04-17T20:20:46Z</time>
      </trkpt>
      <trkpt lat="43.98642" lon="0.1818">
        <ele>118</ele>
        <time>2022-04-17T20:21:19Z</time>
      </trkpt>
      <trkpt lat="43.98631" lon="0.18146">
        <ele>118</ele>
        <time>2022-04-17T20:21:55Z</time>
      </trkpt>
      <trkpt lat="43.98588" lon="0.18026">
        <ele>114</ele>
        <time>2022-04-17T20:24:04Z</time>
      </trkpt>
      <trkpt lat="43.9858" lon="0.17984">
        <ele>111</ele>
        <time>2022-04-17T20:24:46Z</time>
      </trkpt>
      <trkpt lat="43.98572" lon="0.17902">
        <ele>108</ele>
        <time>2022-04-17T20:26:05Z</time>
      </trkpt>
      <trkpt lat="43.98572" lon="0.17882">
        <ele>107</ele>
        <time>2022-04-17T20:26:24Z</time>
      </trkpt>
      <trkpt lat="43.98574" lon="0.17859">
        <ele>106</ele>
        <time>2022-04-17T20:26:47Z</time>
      </trkpt>
      <trkpt lat="43.98579" lon="0.17842">
        <ele>105</ele>
        <time>2022-04-17T20:27:04Z</time>
      </trkpt>
      <trkpt lat="43.98622" lon="0.17754">
        <ele>101</ele>
        <time>2022-04-17T20:28:46Z</time>
      </trkpt>
      <trkpt lat="43.98627" lon="0.17738">
        <ele>100</ele>
        <time>2022-04-17T20:29:03Z</time>
      </trkpt>
      <trkpt lat="43.98626" lon="0.17722">
        <ele>100</ele>
        <time>2022-04-17T20:29:19Z</time>
      </trkpt>
      <trkpt lat="43.98622" lon="0.17706">
        <ele>100</ele>
        <time>2022-04-17T20:29:35Z</time>
      </trkpt>
      <trkpt lat="43.98615" lon="0.17692">
        <ele>100</ele>
        <time>2022-04-17T20:29:51Z</time>
      </trkpt>
      <trkpt lat="43.98543" lon="0.1757">
        <ele>99</ele>
        <time>2022-04-17T20:32:23Z</time>
      </trkpt>
      <trkpt lat="43.98535" lon="0.17559">
        <ele>98</ele>
        <time>2022-04-17T20:32:38Z</time>
      </trkpt>
      <trkpt lat="43.98515" lon="0.17542">
        <ele>98</ele>
        <time>2022-04-17T20:33:09Z</time>
      </trkpt>
      <trkpt lat="43.98483" lon="0.17529">
        <ele>99</ele>
        <time>2022-04-17T20:33:53Z</time>
      </trkpt>
      <trkpt lat="43.98472" lon="0.17521">
        <ele>99</ele>
        <time>2022-04-17T20:34:10Z</time>
      </trkpt>
      <trkpt lat="43.98452" lon="0.17497">
        <ele>99</ele>
        <time>2022-04-17T20:34:45Z</time>
      </trkpt>
      <trkpt lat="43.98459" lon="0.17489">
        <ele>99</ele>
        <time>2022-04-17T20:34:57Z</time>
      </trkpt>
      <trkpt lat="43.98473" lon="0.17464">
        <ele>99</ele>
        <time>2022-04-17T20:35:28Z</time>
      </trkpt>
      <trkpt lat="43.9848" lon="0.17446">
        <ele>99</ele>
        <time>2022-04-17T20:35:47Z</time>
      </trkpt>
      <trkpt lat="43.98523" lon="0.1734">
        <ele>102</ele>
        <time>2022-04-17T20:37:44Z</time>
      </trkpt>
      <trkpt lat="43.98575" lon="0.17238">
        <ele>106</ele>
        <time>2022-04-17T20:39:44Z</time>
      </trkpt>
      <trkpt lat="43.98568" lon="0.17217">
        <ele>106</ele>
        <time>2022-04-17T20:40:07Z</time>
      </trkpt>
      <trkpt lat="43.98565" lon="0.17121">
        <ele>108</ele>
        <time>2022-04-17T20:41:39Z</time>
      </trkpt>
      <trkpt lat="43.98562" lon="0.17106">
        <ele>108</ele>
        <time>2022-04-17T20:41:54Z</time>
      </trkpt>
      <trkpt lat="43.98557" lon="0.17094">
        <ele>109</ele>
        <time>2022-04-17T20:42:07Z</time>
      </trkpt>
      <trkpt lat="43.98548" lon="0.17084">
        <ele>110</ele>
        <time>2022-04-17T20:42:22Z</time>
      </trkpt>
      <trkpt lat="43.98535" lon="0.17076">
        <ele>111</ele>
        <time>2022-04-17T20:42:41Z</time>
      </trkpt>
      <trkpt lat="43.98522" lon="0.17071">
        <ele>112</ele>
        <time>2022-04-17T20:42:59Z</time>
      </trkpt>
      <trkpt lat="43.98508" lon="0.17069">
        <ele>113</ele>
        <time>2022-04-17T20:43:18Z</time>
      </trkpt>
      <trkpt lat="43.98494" lon="0.17072">
        <ele>114</ele>
        <time>2022-04-17T20:43:37Z</time>
      </trkpt>
      <trkpt lat="43.98476" lon="0.17085">
        <ele>115</ele>
        <time>2022-04-17T20:44:04Z</time>
      </trkpt>
      <trkpt lat="43.98454" lon="0.17111">
        <ele>115</ele>
        <time>2022-04-17T20:44:43Z</time>
      </trkpt>
      <trkpt lat="43.98441" lon="0.17117">
        <ele>116</ele>
        <time>2022-04-17T20:45:01Z</time>
      </trkpt>
      <trkpt lat="43.98427" lon="0.17121">
        <ele>117</ele>
        <time>2022-04-17T20:45:20Z</time>
      </trkpt>
      <trkpt lat="43.98411" lon="0.17122">
        <ele>117</ele>
        <time>2022-04-17T20:45:41Z</time>
      </trkpt>
      <trkpt lat="43.98394" lon="0.17117">
        <ele>115</ele>
        <time>2022-04-17T20:46:05Z</time>
      </trkpt>
      <trkpt lat="43.98382" lon="0.17109">
        <ele>115</ele>
        <time>2022-04-17T20:46:22Z</time>
      </trkpt>
      <trkpt lat="43.98371" lon="0.17097">
        <ele>114</ele>
        <time>2022-04-17T20:46:41Z</time>
      </trkpt>
      <trkpt lat="43.98364" lon="0.17084">
        <ele>115</ele>
        <time>2022-04-17T20:46:57Z</time>
      </trkpt>
      <trkpt lat="43.98359" lon="0.17066">
        <ele>116</ele>
        <time>2022-04-17T20:47:15Z</time>
      </trkpt>
      <trkpt lat="43.98358" lon="0.17049">
        <ele>117</ele>
        <time>2022-04-17T20:47:32Z</time>
      </trkpt>
      <trkpt lat="43.98371" lon="0.16946">
        <ele>123</ele>
        <time>2022-04-17T20:49:12Z</time>
      </trkpt>
      <trkpt lat="43.98369" lon="0.16935">
        <ele>124</ele>
        <time>2022-04-17T20:49:23Z</time>
      </trkpt>
      <trkpt lat="43.98365" lon="0.16926">
        <ele>125</ele>
        <time>2022-04-17T20:49:33Z</time>
      </trkpt>
      <trkpt lat="43.98358" lon="0.16919">
        <ele>125</ele>
        <time>2022-04-17T20:49:45Z</time>
      </trkpt>
      <trkpt lat="43.98335" lon="0.16905">
        <ele>127</ele>
        <time>2022-04-17T20:50:18Z</time>
      </trkpt>
      <trkpt lat="43.98323" lon="0.16893">
        <ele>126</ele>
        <time>2022-04-17T20:50:38Z</time>
      </trkpt>
      <trkpt lat="43.98294" lon="0.16841">
        <ele>125</ele>
        <time>2022-04-17T20:51:41Z</time>
      </trkpt>
      <trkpt lat="43.98281" lon="0.16822">
        <ele>124</ele>
        <time>2022-04-17T20:52:06Z</time>
      </trkpt>
      <trkpt lat="43.98225" lon="0.16773">
        <ele>123</ele>
        <time>2022-04-17T20:53:34Z</time>
      </trkpt>
      <trkpt lat="43.98196" lon="0.16756">
        <ele>123</ele>
        <time>2022-04-17T20:54:16Z</time>
      </trkpt>
      <trkpt lat="43.98064" lon="0.16719">
        <ele>120</ele>
        <time>2022-04-17T20:57:16Z</time>
      </trkpt>
      <trkpt lat="43.9799" lon="0.16703">
        <ele>113</ele>
        <time>2022-04-17T20:58:56Z</time>
      </trkpt>
      <trkpt lat="43.97972" lon="0.16697">
        <ele>112</ele>
        <time>2022-04-17T20:59:21Z</time>
      </trkpt>
      <trkpt lat="43.97963" lon="0.1669">
        <ele>112</ele>
        <time>2022-04-17T20:59:34Z</time>
      </trkpt>
      <trkpt lat="43.97933" lon="0.16658">
        <ele>112</ele>
        <time>2022-04-17T21:00:25Z</time>
      </trkpt>
      <trkpt lat="43.97923" lon="0.1665">
        <ele>112</ele>
        <time>2022-04-17T21:00:40Z</time>
      </trkpt>
      <trkpt lat="43.97909" lon="0.16644">
        <ele>112</ele>
        <time>2022-04-17T21:01:00Z</time>
      </trkpt>
      <trkpt lat="43.97803" lon="0.16624">
        <ele>113</ele>
        <time>2022-04-17T21:03:23Z</time>
      </trkpt>
      <trkpt lat="43.97773" lon="0.16611">
        <ele>111</ele>
        <time>2022-04-17T21:04:05Z</time>
      </trkpt>
      <trkpt lat="43.97586" lon="0.16473">
        <ele>118</ele>
        <time>2022-04-17T21:08:47Z</time>
      </trkpt>
      <trkpt lat="43.97579" lon="0.16464">
        <ele>118</ele>
        <time>2022-04-17T21:09:00Z</time>
      </trkpt>
      <trkpt lat="43.97574" lon="0.16454">
        <ele>118</ele>
        <time>2022-04-17T21:09:12Z</time>
      </trkpt>
      <trkpt lat="43.97573" lon="0.1644">
        <ele>119</ele>
        <time>2022-04-17T21:09:25Z</time>
      </trkpt>
      <trkpt lat="43.97581" lon="0.16333">
        <ele>126</ele>
        <time>2022-04-17T21:11:08Z</time>
      </trkpt>
      <trkpt lat="43.97581" lon="0.16233">
        <ele>128</ele>
        <time>2022-04-17T21:12:44Z</time>
      </trkpt>
      <trkpt lat="43.97576" lon="0.16226">
        <ele>128</ele>
        <time>2022-04-17T21:12:54Z</time>
      </trkpt>
      <trkpt lat="43.97568" lon="0.16222">
        <ele>127</ele>
        <time>2022-04-17T21:13:05Z</time>
      </trkpt>
      <trkpt lat="43.97434" lon="0.16165">
        <ele>115</ele>
        <time>2022-04-17T21:16:12Z</time>
      </trkpt>
      <trkpt lat="43.97428" lon="0.16162">
        <ele>114</ele>
        <time>2022-04-17T21:16:21Z</time>
      </trkpt>
      <trkpt lat="43.97309" lon="0.16113">
        <ele>119</ele>
        <time>2022-04-17T21:19:06Z</time>
      </trkpt>
      <trkpt lat="43.97294" lon="0.16105">
        <ele>120</ele>
        <time>2022-04-17T21:19:28Z</time>
      </trkpt>
      <trkpt lat="43.97278" lon="0.16093">
        <ele>121</ele>
        <time>2022-04-17T21:19:52Z</time>
      </trkpt>
      <trkpt lat="43.97212" lon="0.16017">
        <ele>131</ele>
        <time>2022-04-17T21:21:46Z</time>
      </trkpt>
      <trkpt lat="43.97199" lon="0.16005">
        <ele>134</ele>
        <time>2022-04-17T21:22:07Z</time>
      </trkpt>
      <trkpt lat="43.97185" lon="0.15996">
        <ele>136</ele>
        <time>2022-04-17T21:22:28Z</time>
      </trkpt>
      <trkpt lat="43.97126" lon="0.1598">
        <ele>142</ele>
        <time>2022-04-17T21:23:48Z</time>
      </trkpt>
      <trkpt lat="43.97082" lon="0.15979">
        <ele>144</ele>
        <time>2022-04-17T21:24:47Z</time>
      </trkpt>
      <trkpt lat="43.97068" lon="0.15971">
        <ele>144</ele>
        <time>2022-04-17T21:25:07Z</time>
      </trkpt>
      <trkpt lat="43.96976" lon="0.159">
        <ele>146</ele>
        <time>2022-04-17T21:27:27Z</time>
      </trkpt>
      <trkpt lat="43.96819" lon="0.15748">
        <ele>150</ele>
        <time>2022-04-17T21:31:43Z</time>
      </trkpt>
      <trkpt lat="43.96805" lon="0.15731">
        <ele>151</ele>
        <time>2022-04-17T21:32:08Z</time>
      </trkpt>
      <trkpt lat="43.96732" lon="0.15626">
        <ele>153</ele>
        <time>2022-04-17T21:34:28Z</time>
      </trkpt>
      <trkpt lat="43.96701" lon="0.15588">
        <ele>154</ele>
        <time>2022-04-17T21:35:23Z</time>
      </trkpt>
      <trkpt lat="43.96672" lon="0.15557">
        <ele>155</ele>
        <time>2022-04-17T21:36:12Z</time>
      </trkpt>
      <trkpt lat="43.9657" lon="0.15465">
        <ele>156</ele>
        <time>2022-04-17T21:38:54Z</time>
      </trkpt>
      <trkpt lat="43.96549" lon="0.15438">
        <ele>156</ele>
        <time>2022-04-17T21:39:32Z</time>
      </trkpt>
      <trkpt lat="43.96524" lon="0.15402">
        <ele>156</ele>
        <time>2022-04-17T21:40:20Z</time>
      </trkpt>
      <trkpt lat="43.96513" lon="0.15384">
        <ele>156</ele>
        <time>2022-04-17T21:40:43Z</time>
      </trkpt>
      <trkpt lat="43.96361" lon="0.15106">
        <ele>159</ele>
        <time>2022-04-17T21:46:18Z</time>
      </trkpt>
      <trkpt lat="43.96248" lon="0.14932">
        <ele>163</ele>
        <time>2022-04-17T21:50:03Z</time>
      </trkpt>
      <trkpt lat="43.96243" lon="0.14914">
        <ele>163</ele>
        <time>2022-04-17T21:50:22Z</time>
      </trkpt>
      <trkpt lat="43.96241" lon="0.14894">
        <ele>163</ele>
        <time>2022-04-17T21:50:41Z</time>
      </trkpt>
      <trkpt lat="43.96231" lon="0.14695">
        <ele>165</ele>
        <time>2022-04-17T21:53:53Z</time>
      </trkpt>
      <trkpt lat="43.9622" lon="0.14518">
        <ele>166</ele>
        <time>2022-04-17T21:56:44Z</time>
      </trkpt>
      <trkpt lat="43.96097" lon="0.14585">
        <ele>173</ele>
        <time>2022-04-17T21:59:40Z</time>
      </trkpt>
      <trkpt lat="43.96061" lon="0.14617">
        <ele>174</ele>
        <time>2022-04-17T22:00:37Z</time>
      </trkpt>
      <trkpt lat="43.96033" lon="0.14648">
        <ele>173</ele>
        <time>2022-04-17T22:01:25Z</time>
      </trkpt>
      <trkpt lat="43.9597" lon="0.14739">
        <ele>171</ele>
        <time>2022-04-17T22:03:26Z</time>
      </trkpt>
      <trkpt lat="43.95948" lon="0.14764">
        <ele>171</ele>
        <time>2022-04-17T22:04:04Z</time>
      </trkpt>
      <trkpt lat="43.95926" lon="0.14773">
        <ele>171</ele>
        <time>2022-04-17T22:04:35Z</time>
      </trkpt>
      <trkpt lat="43.95878" lon="0.1478">
        <ele>169</ele>
        <time>2022-04-17T22:05:39Z</time>
      </trkpt>
      <trkpt lat="43.95875" lon="0.14669">
        <ele>170</ele>
        <time>2022-04-17T22:07:26Z</time>
      </trkpt>
      <trkpt lat="43.95876" lon="0.14585">
        <ele>172</ele>
        <time>2022-04-17T22:08:46Z</time>
      </trkpt>
      <trkpt lat="43.9585" lon="0.14577">
        <ele>170</ele>
        <time>2022-04-17T22:09:22Z</time>
      </trkpt>
      <trkpt lat="43.95825" lon="0.14573">
        <ele>168</ele>
        <time>2022-04-17T22:09:56Z</time>
      </trkpt>
      <trkpt lat="43.95661" lon="0.14566">
        <ele>166</ele>
        <time>2022-04-17T22:13:34Z</time>
      </trkpt>
      <trkpt lat="43.95568" lon="0.14573">
        <ele>165</ele>
        <time>2022-04-17T22:15:39Z</time>
      </trkpt>
      <trkpt lat="43.95462" lon="0.14566">
        <ele>163</ele>
        <time>2022-04-17T22:18:00Z</time>
      </trkpt>
      <trkpt lat="43.95236" lon="0.14558">
        <ele>153</ele>
        <time>2022-04-17T22:23:02Z</time>
      </trkpt>
      <trkpt lat="43.95172" lon="0.14547">
        <ele>149</ele>
        <time>2022-04-17T22:24:28Z</time>
      </trkpt>
      <trkpt lat="43.95064" lon="0.1451">
        <ele>141</ele>
        <time>2022-04-17T22:26:57Z</time>
      </trkpt>
      <trkpt lat="43.95098" lon="0.14477">
        <ele>139</ele>
        <time>2022-04-17T22:27:52Z</time>
      </trkpt>
      <trkpt lat="43.95166" lon="0.14405">
        <ele>136</ele>
        <time>2022-04-17T22:29:46Z</time>
      </trkpt>
      <trkpt lat="43.95193" lon="0.14364">
        <ele>134</ele>
        <time>2022-04-17T22:30:39Z</time>
      </trkpt>
      <trkpt lat="43.95213" lon="0.14318">
        <ele>133</ele>
        <time>2022-04-17T22:31:31Z</time>
      </trkpt>
      <trkpt lat="43.95225" lon="0.14263">
        <ele>131</ele>
        <time>2022-04-17T22:32:26Z</time>
      </trkpt>
      <trkpt lat="43.95222" lon="0.14178">
        <ele>128</ele>
        <time>2022-04-17T22:33:48Z</time>
      </trkpt>
      <trkpt lat="43.95197" lon="0.13919">
        <ele>118</ele>
        <time>2022-04-17T22:37:59Z</time>
      </trkpt>
      <trkpt lat="43.95204" lon="0.13837">
        <ele>114</ele>
        <time>2022-04-17T22:39:18Z</time>
      </trkpt>
      <trkpt lat="43.95226" lon="0.13776">
        <ele>111</ele>
        <time>2022-04-17T22:40:24Z</time>
      </trkpt>
      <trkpt lat="43.95289" lon="0.13697">
        <ele>107</ele>
        <time>2022-04-17T22:42:17Z</time>
      </trkpt>
      <trkpt lat="43.95304" lon="0.13664">
        <ele>104</ele>
        <time>2022-04-17T22:42:55Z</time>
      </trkpt>
      <trkpt lat="43.95322" lon="0.13606">
        <ele>102</ele>
        <time>2022-04-17T22:43:55Z</time>
      </trkpt>
      <trkpt lat="43.95327" lon="0.13589">
        <ele>100</ele>
        <time>2022-04-17T22:44:13Z</time>
      </trkpt>
      <trkpt lat="43.95337" lon="0.13552">
        <ele>101</ele>
        <time>2022-04-17T22:44:51Z</time>
      </trkpt>
      <trkpt lat="43.95342" lon="0.13535">
        <ele>101</ele>
        <time>2022-04-17T22:45:09Z</time>
      </trkpt>
      <trkpt lat="43.95391" lon="0.13356">
        <ele>108</ele>
        <time>2022-04-17T22:48:13Z</time>
      </trkpt>
      <trkpt lat="43.95401" lon="0.13316">
        <ele>110</ele>
        <time>2022-04-17T22:48:53Z</time>
      </trkpt>
      <trkpt lat="43.95402" lon="0.13273">
        <ele>111</ele>
        <time>2022-04-17T22:49:35Z</time>
      </trkpt>
      <trkpt lat="43.95395" lon="0.13231">
        <ele>112</ele>
        <time>2022-04-17T22:50:16Z</time>
      </trkpt>
      <trkpt lat="43.95375" lon="0.13199">
        <ele>112</ele>
        <time>2022-04-17T22:50:57Z</time>
      </trkpt>
      <trkpt lat="43.9525" lon="0.13119">
        <ele>116</ele>
        <time>2022-04-17T22:54:00Z</time>
      </trkpt>
      <trkpt lat="43.95218" lon="0.13091">
        <ele>117</ele>
        <time>2022-04-17T22:54:51Z</time>
      </trkpt>
      <trkpt lat="43.95196" lon="0.13057">
        <ele>117</ele>
        <time>2022-04-17T22:55:35Z</time>
      </trkpt>
      <trkpt lat="43.95184" lon="0.13029">
        <ele>118</ele>
        <time>2022-04-17T22:56:06Z</time>
      </trkpt>
      <trkpt lat="43.94803" lon="0.1166">
        <ele>129</ele>
        <time>2022-04-17T23:19:36Z</time>
      </trkpt>
      <trkpt lat="43.94666" lon="0.1116">
        <ele>135</ele>
        <time>2022-04-17T23:28:10Z</time>
      </trkpt>
      <trkpt lat="43.94454" lon="0.10401">
        <ele>147</ele>
        <time>2022-04-17T23:41:12Z</time>
      </trkpt>
      <trkpt lat="43.9441" lon="0.10239">
        <ele>154</ele>
        <time>2022-04-17T23:43:59Z</time>
      </trkpt>
      <trkpt lat="43.94393" lon="0.10166">
        <ele>155</ele>
        <time>2022-04-17T23:45:12Z</time>
      </trkpt>
      <trkpt lat="43.9439" lon="0.10112">
        <ele>155</ele>
        <time>2022-04-17T23:46:05Z</time>
      </trkpt>
      <trkpt lat="43.94405" lon="0.09655">
        <ele>161</ele>
        <time>2022-04-17T23:53:24Z</time>
      </trkpt>
      <trkpt lat="43.94408" lon="0.09624">
        <ele>161</ele>
        <time>2022-04-17T23:53:54Z</time>
      </trkpt>
      <trkpt lat="43.94426" lon="0.09541">
        <ele>161</ele>
        <time>2022-04-17T23:55:17Z</time>
      </trkpt>
      <trkpt lat="43.94463" lon="0.09383">
        <ele>160</ele>
        <time>2022-04-17T23:57:57Z</time>
      </trkpt>
      <trkpt lat="43.94641" lon="0.08669">
        <ele>145</ele>
        <time>2022-04-18T00:10:03Z</time>
      </trkpt>
      <trkpt lat="43.94669" lon="0.08579">
        <ele>141</ele>
        <time>2022-04-18T00:11:37Z</time>
      </trkpt>
      <trkpt lat="43.94699" lon="0.08502">
        <ele>138</ele>
        <time>2022-04-18T00:13:01Z</time>
      </trkpt>
      <trkpt lat="43.94706" lon="0.08488">
        <ele>138</ele>
        <time>2022-04-18T00:13:18Z</time>
      </trkpt>
    </trkseg>
  </trk>
</gpx>